sensor_id;sensor_type;location;lat;lon;timestamp;pressure;altitude;pressure_sealevel;temperature;humidity
5380;BME280;2713;42.680;23.310;2023-03-15T00:01:34;94089.84;;;10.74;42.44
5380;BME280;2713;42.680;23.310;2023-03-15T00:04:01;94089.25;;;10.72;42.78
5380;BME280;2713;42.680;23.310;2023-03-15T00:06:30;94083.69;;;10.49;43.14
5380;BME280;2713;42.680;23.310;2023-03-15T00:08:58;94088.72;;;10.37;43.81
5380;BME280;2713;42.680;23.310;2023-03-15T00:11:28;94078.91;;;10.39;43.73
5380;BME280;2713;42.680;23.310;2023-03-15T00:13:55;94080.31;;;10.42;43.64
5380;BME280;2713;42.680;23.310;2023-03-15T00:16:22;94091.31;;;10.44;43.59
5380;BME280;2713;42.680;23.310;2023-03-15T00:18:52;94094.72;;;10.44;43.71
5380;BME280;2713;42.680;23.310;2023-03-15T00:21:20;94090.09;;;10.46;44.09
5380;BME280;2713;42.680;23.310;2023-03-15T00:23:47;94080.13;;;10.43;43.67
5380;BME280;2713;42.680;23.310;2023-03-15T00:26:14;94080.13;;;10.30;43.83
5380;BME280;2713;42.680;23.310;2023-03-15T00:28:42;94085.28;;;10.50;43.92
5380;BME280;2713;42.680;23.310;2023-03-15T00:31:13;94073.13;;;10.44;43.57
5380;BME280;2713;42.680;23.310;2023-03-15T00:33:43;94076.72;;;10.36;43.64
5380;BME280;2713;42.680;23.310;2023-03-15T00:36:11;94074.13;;;10.30;43.70
5380;BME280;2713;42.680;23.310;2023-03-15T00:38:39;94069.31;;;10.46;43.53
5380;BME280;2713;42.680;23.310;2023-03-15T00:41:10;94066.47;;;10.67;43.47
5380;BME280;2713;42.680;23.310;2023-03-15T00:43:39;94070.47;;;10.63;43.32
5380;BME280;2713;42.680;23.310;2023-03-15T00:46:08;94074.50;;;10.46;43.33
5380;BME280;2713;42.680;23.310;2023-03-15T00:48:35;94078.13;;;10.12;44.48
5380;BME280;2713;42.680;23.310;2023-03-15T00:51:06;94058.16;;;10.13;44.22
5380;BME280;2713;42.680;23.310;2023-03-15T00:53:33;94062.16;;;10.22;44.17
5380;BME280;2713;42.680;23.310;2023-03-15T00:56:03;94057.75;;;10.36;43.93
5380;BME280;2713;42.680;23.310;2023-03-15T00:58:30;94053.72;;;10.53;43.25
5380;BME280;2713;42.680;23.310;2023-03-15T01:00:57;94045.72;;;10.54;43.23
5380;BME280;2713;42.680;23.310;2023-03-15T01:03:26;94039.53;;;10.42;43.62
5380;BME280;2713;42.680;23.310;2023-03-15T01:05:53;94045.34;;;10.44;43.24
5380;BME280;2713;42.680;23.310;2023-03-15T01:08:20;94031.56;;;10.37;43.45
5380;BME280;2713;42.680;23.310;2023-03-15T01:10:48;94038.56;;;10.43;43.80
5380;BME280;2713;42.680;23.310;2023-03-15T01:13:15;94036.53;;;10.45;43.60
5380;BME280;2713;42.680;23.310;2023-03-15T01:15:44;94040.53;;;10.48;43.90
5380;BME280;2713;42.680;23.310;2023-03-15T01:18:12;94036.69;;;10.70;43.36
5380;BME280;2713;42.680;23.310;2023-03-15T01:20:42;94036.72;;;10.57;43.56
5380;BME280;2713;42.680;23.310;2023-03-15T01:23:10;94029.53;;;10.52;44.00
5380;BME280;2713;42.680;23.310;2023-03-15T01:25:38;94020.53;;;10.48;44.16
5380;BME280;2713;42.680;23.310;2023-03-15T01:28:05;94014.56;;;10.41;43.99
5380;BME280;2713;42.680;23.310;2023-03-15T01:30:34;94014.34;;;10.49;43.75
5380;BME280;2713;42.680;23.310;2023-03-15T01:33:00;94000.56;;;10.42;43.79
5380;BME280;2713;42.680;23.310;2023-03-15T01:35:27;94003.56;;;10.46;43.26
5380;BME280;2713;42.680;23.310;2023-03-15T01:37:56;94018.91;;;10.60;43.45
5380;BME280;2713;42.680;23.310;2023-03-15T01:40:22;94013.53;;;10.49;43.49
5380;BME280;2713;42.680;23.310;2023-03-15T01:42:51;94008.13;;;10.57;43.52
5380;BME280;2713;42.680;23.310;2023-03-15T01:48:24;94005.72;;;10.55;43.12
5380;BME280;2713;42.680;23.310;2023-03-15T01:50:53;94003.34;;;10.54;42.82
5380;BME280;2713;42.680;23.310;2023-03-15T01:53:24;94000.41;;;10.31;44.30
5380;BME280;2713;42.680;23.310;2023-03-15T01:55:53;93998.22;;;10.34;44.28
5380;BME280;2713;42.680;23.310;2023-03-15T01:58:27;93994.22;;;10.25;44.84
5380;BME280;2713;42.680;23.310;2023-03-15T02:00:55;93994.84;;;10.14;45.32
5380;BME280;2713;42.680;23.310;2023-03-15T02:03:26;93985.22;;;10.08;45.08
5380;BME280;2713;42.680;23.310;2023-03-15T02:05:56;93980.66;;;10.23;44.89
5380;BME280;2713;42.680;23.310;2023-03-15T02:08:45;93982.63;;;10.34;45.15
5380;BME280;2713;42.680;23.310;2023-03-15T02:11:16;93963.66;;;10.34;44.91
5380;BME280;2713;42.680;23.310;2023-03-15T02:13:45;93977.03;;;10.37;45.10
5380;BME280;2713;42.680;23.310;2023-03-15T02:16:14;93942.09;;;10.27;44.63
5380;BME280;2713;42.680;23.310;2023-03-15T02:18:46;93959.78;;;10.49;44.66
5380;BME280;2713;42.680;23.310;2023-03-15T02:21:23;93945.06;;;10.37;44.29
5380;BME280;2713;42.680;23.310;2023-03-15T02:24:00;93960.19;;;10.46;44.42
5380;BME280;2713;42.680;23.310;2023-03-15T02:26:36;93957.84;;;10.32;45.48
5380;BME280;2713;42.680;23.310;2023-03-15T02:29:05;93922.94;;;10.08;45.27
5380;BME280;2713;42.680;23.310;2023-03-15T02:34:07;93952.66;;;10.32;45.19
5380;BME280;2713;42.680;23.310;2023-03-15T02:36:35;93962.41;;;10.43;44.53
5380;BME280;2713;42.680;23.310;2023-03-15T02:39:13;93955.44;;;10.37;45.03
5380;BME280;2713;42.680;23.310;2023-03-15T02:41:43;93954.06;;;10.34;44.85
5380;BME280;2713;42.680;23.310;2023-03-15T02:44:14;93959.25;;;10.28;44.86
5380;BME280;2713;42.680;23.310;2023-03-15T02:46:43;93957.63;;;10.40;44.79
5380;BME280;2713;42.680;23.310;2023-03-15T02:49:11;93950.03;;;10.38;44.62
5380;BME280;2713;42.680;23.310;2023-03-15T02:51:38;93939.06;;;10.36;45.00
5380;BME280;2713;42.680;23.310;2023-03-15T02:54:05;93942.63;;;10.42;44.82
5380;BME280;2713;42.680;23.310;2023-03-15T02:56:36;93943.09;;;10.19;43.31
5380;BME280;2713;42.680;23.310;2023-03-15T02:59:07;93942.28;;;10.12;42.25
5380;BME280;2713;42.680;23.310;2023-03-15T03:01:35;93939.31;;;10.15;41.84
5380;BME280;2713;42.680;23.310;2023-03-15T03:04:03;93937.50;;;10.22;41.72
5380;BME280;2713;42.680;23.310;2023-03-15T03:06:31;93938.13;;;10.04;41.66
5380;BME280;2713;42.680;23.310;2023-03-15T03:08:59;93939.13;;;10.10;41.49
5380;BME280;2713;42.680;23.310;2023-03-15T03:11:28;93931.72;;;10.13;41.98
5380;BME280;2713;42.680;23.310;2023-03-15T03:13:55;93925.53;;;10.08;41.82
5380;BME280;2713;42.680;23.310;2023-03-15T03:16:24;93925.13;;;10.04;41.95
5380;BME280;2713;42.680;23.310;2023-03-15T03:18:56;93924.31;;;10.04;42.09
5380;BME280;2713;42.680;23.310;2023-03-15T03:21:29;93918.94;;;10.12;41.40
5380;BME280;2713;42.680;23.310;2023-03-15T03:23:57;93921.53;;;10.12;41.13
5380;BME280;2713;42.680;23.310;2023-03-15T03:26:24;93916.16;;;10.20;41.45
5380;BME280;2713;42.680;23.310;2023-03-15T03:28:53;93913.94;;;10.04;41.03
5380;BME280;2713;42.680;23.310;2023-03-15T03:31:24;93901.00;;;9.91;41.23
5380;BME280;2713;42.680;23.310;2023-03-15T03:33:55;93904.41;;;9.91;41.52
5380;BME280;2713;42.680;23.310;2023-03-15T03:36:23;93913.53;;;10.13;40.88
5380;BME280;2713;42.680;23.310;2023-03-15T03:38:50;93882.78;;;10.04;40.68
5380;BME280;2713;42.680;23.310;2023-03-15T03:41:19;93893.56;;;10.14;40.41
5380;BME280;2713;42.680;23.310;2023-03-15T03:43:46;93895.78;;;10.17;40.24
5380;BME280;2713;42.680;23.310;2023-03-15T03:46:14;93897.56;;;10.23;40.45
5380;BME280;2713;42.680;23.310;2023-03-15T03:48:45;93900.31;;;10.28;40.15
5380;BME280;2713;42.680;23.310;2023-03-15T03:51:14;93897.91;;;10.33;40.02
5380;BME280;2713;42.680;23.310;2023-03-15T03:53:40;93900.94;;;10.24;39.81
5380;BME280;2713;42.680;23.310;2023-03-15T03:56:08;93886.97;;;10.18;39.67
5380;BME280;2713;42.680;23.310;2023-03-15T03:58:35;93892.75;;;10.27;39.96
5380;BME280;2713;42.680;23.310;2023-03-15T04:01:14;93893.56;;;10.27;40.51
5380;BME280;2713;42.680;23.310;2023-03-15T04:03:44;93877.38;;;10.18;40.01
5380;BME280;2713;42.680;23.310;2023-03-15T04:06:16;93877.78;;;10.09;40.46
5380;BME280;2713;42.680;23.310;2023-03-15T04:08:45;93868.00;;;10.04;39.91
5380;BME280;2713;42.680;23.310;2023-03-15T04:11:34;93868.81;;;10.05;40.25
5380;BME280;2713;42.680;23.310;2023-03-15T04:14:04;93880.00;;;10.05;40.50
5380;BME280;2713;42.680;23.310;2023-03-15T04:16:32;93871.03;;;10.01;40.34
5380;BME280;2713;42.680;23.310;2023-03-15T04:19:02;93875.22;;;10.02;40.54
5380;BME280;2713;42.680;23.310;2023-03-15T04:21:33;93870.84;;;9.96;40.74
5380;BME280;2713;42.680;23.310;2023-03-15T04:24:14;93882.84;;;9.84;40.31
5380;BME280;2713;42.680;23.310;2023-03-15T04:27:08;93876.47;;;9.74;40.60
5380;BME280;2713;42.680;23.310;2023-03-15T04:30:09;93864.91;;;9.83;40.34
5380;BME280;2713;42.680;23.310;2023-03-15T04:32:43;93870.41;;;10.06;40.97
5380;BME280;2713;42.680;23.310;2023-03-15T04:35:32;93863.47;;;10.00;40.78
5380;BME280;2713;42.680;23.310;2023-03-15T04:38:33;93868.78;;;10.11;41.08
5380;BME280;2713;42.680;23.310;2023-03-15T04:41:17;93872.00;;;10.07;40.42
5380;BME280;2713;42.680;23.310;2023-03-15T04:44:09;93869.00;;;10.03;40.60
5380;BME280;2713;42.680;23.310;2023-03-15T04:46:53;93869.78;;;10.10;40.45
5380;BME280;2713;42.680;23.310;2023-03-15T04:49:38;93871.63;;;10.10;40.66
5380;BME280;2713;42.680;23.310;2023-03-15T04:52:27;93875.41;;;10.01;41.36
5380;BME280;2713;42.680;23.310;2023-03-15T04:55:24;93873.19;;;10.11;41.17
5380;BME280;2713;42.680;23.310;2023-03-15T04:58:13;93868.00;;;10.11;41.15
5380;BME280;2713;42.680;23.310;2023-03-15T05:01:00;93862.03;;;10.04;40.96
5380;BME280;2713;42.680;23.310;2023-03-15T05:03:46;93861.25;;;9.97;41.53
5380;BME280;2713;42.680;23.310;2023-03-15T05:06:30;93865.66;;;9.90;41.26
5380;BME280;2713;42.680;23.310;2023-03-15T05:09:25;93858.69;;;9.84;41.57
5380;BME280;2713;42.680;23.310;2023-03-15T05:12:16;93864.56;;;9.46;42.14
5380;BME280;2713;42.680;23.310;2023-03-15T05:14:43;93876.31;;;9.68;42.01
5380;BME280;2713;42.680;23.310;2023-03-15T05:17:30;93874.09;;;9.79;41.78
5380;BME280;2713;42.680;23.310;2023-03-15T05:20:17;93877.69;;;9.78;41.54
5380;BME280;2713;42.680;23.310;2023-03-15T05:23:04;93866.66;;;9.95;41.38
5380;BME280;2713;42.680;23.310;2023-03-15T05:25:49;93866.69;;;9.82;42.05
5380;BME280;2713;42.680;23.310;2023-03-15T05:28:20;93864.06;;;9.95;41.53
5380;BME280;2713;42.680;23.310;2023-03-15T05:31:14;93859.25;;;9.99;41.63
5380;BME280;2713;42.680;23.310;2023-03-15T05:34:02;93854.91;;;9.93;41.42
5380;BME280;2713;42.680;23.310;2023-03-15T05:36:38;93856.47;;;9.94;41.71
5380;BME280;2713;42.680;23.310;2023-03-15T05:39:30;93851.91;;;9.89;41.75
5380;BME280;2713;42.680;23.310;2023-03-15T05:42:37;93866.34;;;9.65;43.47
5380;BME280;2713;42.680;23.310;2023-03-15T05:45:28;93863.91;;;9.77;43.38
5380;BME280;2713;42.680;23.310;2023-03-15T05:48:10;93862.09;;;9.78;42.89
5380;BME280;2713;42.680;23.310;2023-03-15T05:51:00;93846.13;;;9.81;43.38
5380;BME280;2713;42.680;23.310;2023-03-15T05:53:45;93850.53;;;9.74;43.94
5380;BME280;2713;42.680;23.310;2023-03-15T05:56:44;93851.28;;;9.94;43.39
5380;BME280;2713;42.680;23.310;2023-03-15T05:59:29;93830.41;;;9.62;44.21
5380;BME280;2713;42.680;23.310;2023-03-15T06:02:13;93851.56;;;9.53;44.53
5380;BME280;2713;42.680;23.310;2023-03-15T06:04:48;93851.22;;;9.16;44.59
5380;BME280;2713;42.680;23.310;2023-03-15T06:07:19;93853.59;;;9.05;44.98
5380;BME280;2713;42.680;23.310;2023-03-15T06:09:46;93847.25;;;9.07;45.13
5380;BME280;2713;42.680;23.310;2023-03-15T06:12:13;93857.41;;;9.09;44.36
5380;BME280;2713;42.680;23.310;2023-03-15T06:14:40;93851.81;;;9.18;44.51
5380;BME280;2713;42.680;23.310;2023-03-15T06:17:08;93852.19;;;9.35;43.72
5380;BME280;2713;42.680;23.310;2023-03-15T06:19:36;93856.19;;;9.25;43.65
5380;BME280;2713;42.680;23.310;2023-03-15T06:22:03;93855.41;;;9.37;43.64
5380;BME280;2713;42.680;23.310;2023-03-15T06:24:37;93858.19;;;9.55;56.35
5380;BME280;2713;42.680;23.310;2023-03-15T06:27:04;93867.47;;;12.98;77.62
5380;BME280;2713;42.680;23.310;2023-03-15T06:29:33;93860.16;;;14.22;70.15
5380;BME280;2713;42.680;23.310;2023-03-15T06:32:01;93859.66;;;14.49;51.80
5380;BME280;2713;42.680;23.310;2023-03-15T06:34:29;93849.28;;;14.65;45.58
5380;BME280;2713;42.680;23.310;2023-03-15T06:36:57;93839.81;;;14.36;38.40
5380;BME280;2713;42.680;23.310;2023-03-15T06:39:24;93841.81;;;13.71;37.43
5380;BME280;2713;42.680;23.310;2023-03-15T06:41:51;93847.50;;;13.80;36.71
5380;BME280;2713;42.680;23.310;2023-03-15T06:44:21;93848.19;;;12.99;37.24
5380;BME280;2713;42.680;23.310;2023-03-15T06:46:53;93849.00;;;12.69;36.99
5380;BME280;2713;42.680;23.310;2023-03-15T06:49:21;93827.31;;;12.28;38.21
5380;BME280;2713;42.680;23.310;2023-03-15T06:51:48;93837.88;;;12.33;38.26
5380;BME280;2713;42.680;23.310;2023-03-15T06:54:16;93846.09;;;12.48;38.49
5380;BME280;2713;42.680;23.310;2023-03-15T06:56:43;93846.97;;;12.71;37.64
5380;BME280;2713;42.680;23.310;2023-03-15T06:59:10;93847.63;;;12.97;36.87
5380;BME280;2713;42.680;23.310;2023-03-15T07:01:37;93826.91;;;12.72;37.21
5380;BME280;2713;42.680;23.310;2023-03-15T07:04:04;93822.34;;;12.67;37.34
5380;BME280;2713;42.680;23.310;2023-03-15T07:06:31;93827.53;;;12.56;37.57
5380;BME280;2713;42.680;23.310;2023-03-15T07:08:57;93837.44;;;12.65;38.48
5380;BME280;2713;42.680;23.310;2023-03-15T07:11:25;93823.75;;;13.23;37.03
5380;BME280;2713;42.680;23.310;2023-03-15T07:13:52;93825.94;;;13.73;35.84
5380;BME280;2713;42.680;23.310;2023-03-15T07:16:19;93818.41;;;13.88;35.48
5380;BME280;2713;42.680;23.310;2023-03-15T07:18:46;93820.59;;;13.67;35.26
5380;BME280;2713;42.680;23.310;2023-03-15T07:21:13;93814.31;;;13.92;35.64
5380;BME280;2713;42.680;23.310;2023-03-15T07:23:40;93823.28;;;14.47;34.57
5380;BME280;2713;42.680;23.310;2023-03-15T07:26:07;93842.72;;;14.51;35.22
5380;BME280;2713;42.680;23.310;2023-03-15T07:28:35;93831.59;;;14.33;34.46
5380;BME280;2713;42.680;23.310;2023-03-15T07:31:04;93829.38;;;14.64;34.73
5380;BME280;2713;42.680;23.310;2023-03-15T07:33:32;93827.75;;;14.92;33.51
5380;BME280;2713;42.680;23.310;2023-03-15T07:36:00;93815.84;;;15.01;33.15
5380;BME280;2713;42.680;23.310;2023-03-15T07:38:28;93818.06;;;14.76;33.84
5380;BME280;2713;42.680;23.310;2023-03-15T07:40:56;93810.75;;;14.78;33.57
5380;BME280;2713;42.680;23.310;2023-03-15T07:43:23;93817.72;;;14.44;33.77
5380;BME280;2713;42.680;23.310;2023-03-15T07:46:00;93821.56;;;14.98;33.23
5380;BME280;2713;42.680;23.310;2023-03-15T07:48:27;93812.56;;;15.55;33.38
5380;BME280;2713;42.680;23.310;2023-03-15T07:50:55;93805.44;;;15.51;32.71
5380;BME280;2713;42.680;23.310;2023-03-15T07:53:22;93809.47;;;15.97;32.90
5380;BME280;2713;42.680;23.310;2023-03-15T07:55:49;93805.47;;;15.72;32.36
5380;BME280;2713;42.680;23.310;2023-03-15T07:58:16;93807.63;;;15.09;33.44
5380;BME280;2713;42.680;23.310;2023-03-15T08:00:43;93815.56;;;15.14;33.53
5380;BME280;2713;42.680;23.310;2023-03-15T08:03:11;93818.25;;;15.19;33.65
5380;BME280;2713;42.680;23.310;2023-03-15T08:05:38;93804.06;;;17.00;58.88
5380;BME280;2713;42.680;23.310;2023-03-15T08:08:05;93801.38;;;17.22;34.44
5380;BME280;2713;42.680;23.310;2023-03-15T08:10:32;93806.19;;;16.50;32.21
5380;BME280;2713;42.680;23.310;2023-03-15T08:12:59;93811.78;;;16.15;32.49
5380;BME280;2713;42.680;23.310;2023-03-15T08:15:26;93799.41;;;15.89;33.27
5380;BME280;2713;42.680;23.310;2023-03-15T08:17:53;93779.22;;;15.67;32.64
5380;BME280;2713;42.680;23.310;2023-03-15T08:20:21;93785.09;;;15.58;32.77
5380;BME280;2713;42.680;23.310;2023-03-15T08:22:49;93782.72;;;15.23;33.76
5380;BME280;2713;42.680;23.310;2023-03-15T08:25:17;93789.22;;;14.87;34.18
5380;BME280;2713;42.680;23.310;2023-03-15T08:27:44;93790.97;;;15.15;34.93
5380;BME280;2713;42.680;23.310;2023-03-15T08:30:13;93794.63;;;15.47;33.69
5380;BME280;2713;42.680;23.310;2023-03-15T08:32:40;93787.88;;;15.35;33.48
5380;BME280;2713;42.680;23.310;2023-03-15T08:35:08;93780.25;;;15.33;34.47
5380;BME280;2713;42.680;23.310;2023-03-15T08:37:36;93780.81;;;15.02;34.12
5380;BME280;2713;42.680;23.310;2023-03-15T08:40:04;93780.00;;;14.85;34.02
5380;BME280;2713;42.680;23.310;2023-03-15T08:42:34;93785.34;;;15.06;34.16
5380;BME280;2713;42.680;23.310;2023-03-15T08:45:01;93770.50;;;15.29;34.03
5380;BME280;2713;42.680;23.310;2023-03-15T08:47:28;93763.84;;;15.54;33.61
5380;BME280;2713;42.680;23.310;2023-03-15T08:49:55;93758.56;;;16.14;33.12
5380;BME280;2713;42.680;23.310;2023-03-15T08:52:22;93766.97;;;16.16;33.09
5380;BME280;2713;42.680;23.310;2023-03-15T08:54:50;93774.00;;;16.11;32.96
5380;BME280;2713;42.680;23.310;2023-03-15T08:57:17;93762.69;;;15.67;33.66
5380;BME280;2713;42.680;23.310;2023-03-15T08:59:44;93776.38;;;15.19;33.89
5380;BME280;2713;42.680;23.310;2023-03-15T09:02:10;93787.94;;;14.90;34.59
5380;BME280;2713;42.680;23.310;2023-03-15T09:04:37;93771.66;;;14.54;35.61
5380;BME280;2713;42.680;23.310;2023-03-15T09:07:04;93783.44;;;14.85;35.46
5380;BME280;2713;42.680;23.310;2023-03-15T09:09:31;93778.41;;;14.84;35.63
5380;BME280;2713;42.680;23.310;2023-03-15T09:12:00;93767.03;;;15.06;34.97
5380;BME280;2713;42.680;23.310;2023-03-15T09:14:27;93779.69;;;14.98;35.11
5380;BME280;2713;42.680;23.310;2023-03-15T09:16:54;93776.53;;;14.79;35.19
5380;BME280;2713;42.680;23.310;2023-03-15T09:19:20;93768.19;;;14.37;36.00
5380;BME280;2713;42.680;23.310;2023-03-15T09:21:47;93781.16;;;13.92;36.45
5380;BME280;2713;42.680;23.310;2023-03-15T09:24:14;93779.72;;;13.61;37.33
5380;BME280;2713;42.680;23.310;2023-03-15T09:26:41;93780.81;;;13.77;37.37
5380;BME280;2713;42.680;23.310;2023-03-15T09:29:09;93784.59;;;13.46;38.06
5380;BME280;2713;42.680;23.310;2023-03-15T09:31:36;93780.75;;;13.60;37.95
5380;BME280;2713;42.680;23.310;2023-03-15T09:34:03;93776.66;;;13.76;37.45
5380;BME280;2713;42.680;23.310;2023-03-15T09:36:30;93773.38;;;13.57;38.07
5380;BME280;2713;42.680;23.310;2023-03-15T09:38:57;93763.63;;;13.41;38.55
5380;BME280;2713;42.680;23.310;2023-03-15T09:41:37;93757.53;;;13.87;37.96
5380;BME280;2713;42.680;23.310;2023-03-15T09:44:16;93764.00;;;13.96;37.58
5380;BME280;2713;42.680;23.310;2023-03-15T09:46:56;93763.59;;;13.64;37.54
5380;BME280;2713;42.680;23.310;2023-03-15T09:49:32;93756.44;;;13.60;38.47
5380;BME280;2713;42.680;23.310;2023-03-15T09:52:10;93746.81;;;13.49;38.28
5380;BME280;2713;42.680;23.310;2023-03-15T09:54:42;93743.25;;;13.66;38.24
5380;BME280;2713;42.680;23.310;2023-03-15T09:57:14;93735.22;;;13.56;37.99
5380;BME280;2713;42.680;23.310;2023-03-15T09:59:48;93741.50;;;13.44;38.31
5380;BME280;2713;42.680;23.310;2023-03-15T10:02:21;93740.81;;;13.37;38.31
5380;BME280;2713;42.680;23.310;2023-03-15T10:04:51;93746.81;;;13.37;38.30
5380;BME280;2713;42.680;23.310;2023-03-15T10:07:20;93755.31;;;13.67;38.10
5380;BME280;2713;42.680;23.310;2023-03-15T10:09:47;93760.09;;;13.59;37.88
5380;BME280;2713;42.680;23.310;2023-03-15T10:12:15;93749.91;;;13.46;38.26
5380;BME280;2713;42.680;23.310;2023-03-15T10:15:02;93748.72;;;13.65;38.20
5380;BME280;2713;42.680;23.310;2023-03-15T10:17:39;93744.03;;;14.75;43.22
5380;BME280;2713;42.680;23.310;2023-03-15T10:20:12;93754.00;;;15.28;46.03
5380;BME280;2713;42.680;23.310;2023-03-15T10:22:47;93750.19;;;14.69;37.01
5380;BME280;2713;42.680;23.310;2023-03-15T10:25:18;93748.81;;;14.50;37.03
5380;BME280;2713;42.680;23.310;2023-03-15T10:27:49;93753.81;;;14.11;37.74
5380;BME280;2713;42.680;23.310;2023-03-15T10:30:21;93747.44;;;14.19;37.62
5380;BME280;2713;42.680;23.310;2023-03-15T10:32:51;93741.09;;;14.15;37.56
5380;BME280;2713;42.680;23.310;2023-03-15T10:35:21;93739.13;;;13.94;38.10
5380;BME280;2713;42.680;23.310;2023-03-15T10:37:48;93734.78;;;13.99;37.56
5380;BME280;2713;42.680;23.310;2023-03-15T10:40:16;93744.25;;;13.89;38.09
5380;BME280;2713;42.680;23.310;2023-03-15T10:43:11;93737.03;;;13.67;37.74
5380;BME280;2713;42.680;23.310;2023-03-15T10:45:40;93751.16;;;13.20;39.23
5380;BME280;2713;42.680;23.310;2023-03-15T10:48:07;93743.16;;;12.92;39.57
5380;BME280;2713;42.680;23.310;2023-03-15T10:50:37;93739.66;;;13.33;38.89
5380;BME280;2713;42.680;23.310;2023-03-15T10:53:08;93734.53;;;13.49;38.36
5380;BME280;2713;42.680;23.310;2023-03-15T10:55:41;93746.53;;;13.73;38.09
5380;BME280;2713;42.680;23.310;2023-03-15T10:58:19;93744.84;;;13.79;37.64
5380;BME280;2713;42.680;23.310;2023-03-15T11:00:50;93741.44;;;13.79;37.63
5380;BME280;2713;42.680;23.310;2023-03-15T11:03:19;93740.16;;;13.93;37.64
5380;BME280;2713;42.680;23.310;2023-03-15T11:05:48;93711.09;;;13.78;38.17
5380;BME280;2713;42.680;23.310;2023-03-15T11:08:17;93733.53;;;13.62;38.33
5380;BME280;2713;42.680;23.310;2023-03-15T11:10:45;93727.50;;;13.61;38.55
5380;BME280;2713;42.680;23.310;2023-03-15T11:13:18;93729.84;;;13.75;38.38
5380;BME280;2713;42.680;23.310;2023-03-15T11:15:55;93730.00;;;13.56;38.91
5380;BME280;2713;42.680;23.310;2023-03-15T11:18:28;93721.88;;;13.41;38.57
5380;BME280;2713;42.680;23.310;2023-03-15T11:20:56;93724.00;;;13.56;38.27
5380;BME280;2713;42.680;23.310;2023-03-15T11:23:25;93737.06;;;13.44;38.60
5380;BME280;2713;42.680;23.310;2023-03-15T11:25:53;93733.16;;;13.70;38.45
5380;BME280;2713;42.680;23.310;2023-03-15T11:28:22;93730.75;;;13.80;37.71
5380;BME280;2713;42.680;23.310;2023-03-15T11:30:51;93734.81;;;13.88;37.95
5380;BME280;2713;42.680;23.310;2023-03-15T11:33:31;93718.97;;;14.06;37.80
5380;BME280;2713;42.680;23.310;2023-03-15T11:36:05;93729.44;;;14.06;39.74
5380;BME280;2713;42.680;23.310;2023-03-15T11:38:36;93715.16;;;13.97;38.25
5380;BME280;2713;42.680;23.310;2023-03-15T11:41:13;93708.53;;;14.06;37.80
5380;BME280;2713;42.680;23.310;2023-03-15T11:43:50;93711.22;;;14.11;37.70
5380;BME280;2713;42.680;23.310;2023-03-15T11:46:25;93712.53;;;14.25;37.51
5380;BME280;2713;42.680;23.310;2023-03-15T11:49:00;93693.31;;;14.03;39.04
5380;BME280;2713;42.680;23.310;2023-03-15T11:51:32;93711.88;;;14.18;39.99
5380;BME280;2713;42.680;23.310;2023-03-15T11:54:05;93707.69;;;14.17;40.62
5380;BME280;2713;42.680;23.310;2023-03-15T11:56:54;93709.38;;;15.56;65.01
5380;BME280;2713;42.680;23.310;2023-03-15T11:59:26;93711.44;;;16.73;61.41
5380;BME280;2713;42.680;23.310;2023-03-15T12:01:56;93704.28;;;17.32;50.29
5380;BME280;2713;42.680;23.310;2023-03-15T12:04:41;93704.13;;;18.01;52.19
5380;BME280;2713;42.680;23.310;2023-03-15T12:10:32;93675.81;;;18.38;40.95
5380;BME280;2713;42.680;23.310;2023-03-15T12:13:14;93685.00;;;17.58;37.60
5380;BME280;2713;42.680;23.310;2023-03-15T12:15:45;93684.31;;;17.31;42.10
5380;BME280;2713;42.680;23.310;2023-03-15T12:18:15;93704.91;;;17.54;40.28
5380;BME280;2713;42.680;23.310;2023-03-15T12:20:50;93681.34;;;17.59;38.55
5380;BME280;2713;42.680;23.310;2023-03-15T12:23:30;93678.47;;;17.66;40.42
5380;BME280;2713;42.680;23.310;2023-03-15T12:26:03;93669.34;;;17.84;40.28
5380;BME280;2713;42.680;23.310;2023-03-15T12:28:34;93675.34;;;17.74;39.22
5380;BME280;2713;42.680;23.310;2023-03-15T12:31:03;93684.59;;;17.92;40.81
5380;BME280;2713;42.680;23.310;2023-03-15T12:33:33;93681.03;;;18.23;42.04
5380;BME280;2713;42.680;23.310;2023-03-15T12:36:18;93671.38;;;18.54;41.42
5380;BME280;2713;42.680;23.310;2023-03-15T12:38:58;93664.22;;;18.39;38.15
5380;BME280;2713;42.680;23.310;2023-03-15T12:41:37;93671.34;;;17.56;39.03
5380;BME280;2713;42.680;23.310;2023-03-15T12:44:25;93678.22;;;16.89;39.43
5380;BME280;2713;42.680;23.310;2023-03-15T12:47:03;93672.44;;;16.01;42.57
5380;BME280;2713;42.680;23.310;2023-03-15T12:49:33;93670.41;;;15.82;41.64
5380;BME280;2713;42.680;23.310;2023-03-15T12:52:03;93676.78;;;15.69;41.05
5380;BME280;2713;42.680;23.310;2023-03-15T12:54:36;93665.78;;;15.67;40.44
5380;BME280;2713;42.680;23.310;2023-03-15T12:57:10;93664.94;;;15.61;41.06
5380;BME280;2713;42.680;23.310;2023-03-15T12:59:41;93671.72;;;15.62;40.63
5380;BME280;2713;42.680;23.310;2023-03-15T13:02:27;93672.03;;;15.44;39.81
5380;BME280;2713;42.680;23.310;2023-03-15T13:05:14;93678.81;;;15.23;40.29
5380;BME280;2713;42.680;23.310;2023-03-15T13:07:52;93668.66;;;15.10;41.35
5380;BME280;2713;42.680;23.310;2023-03-15T13:10:35;93671.22;;;15.05;40.39
5380;BME280;2713;42.680;23.310;2023-03-15T13:13:09;93662.66;;;15.10;41.22
5380;BME280;2713;42.680;23.310;2023-03-15T13:15:42;93658.69;;;15.07;40.71
5380;BME280;2713;42.680;23.310;2023-03-15T13:18:14;93655.91;;;14.97;40.91
5380;BME280;2713;42.680;23.310;2023-03-15T13:20:52;93663.28;;;15.00;41.48
5380;BME280;2713;42.680;23.310;2023-03-15T13:23:27;93655.13;;;15.35;39.90
5380;BME280;2713;42.680;23.310;2023-03-15T13:26:10;93655.75;;;15.42;39.54
5380;BME280;2713;42.680;23.310;2023-03-15T13:28:46;93668.66;;;15.27;40.03
5380;BME280;2713;42.680;23.310;2023-03-15T13:31:19;93667.38;;;15.30;40.10
5380;BME280;2713;42.680;23.310;2023-03-15T13:33:47;93669.72;;;15.31;39.38
5380;BME280;2713;42.680;23.310;2023-03-15T13:36:16;93680.50;;;15.35;40.01
5380;BME280;2713;42.680;23.310;2023-03-15T13:38:48;93678.63;;;15.30;39.46
5380;BME280;2713;42.680;23.310;2023-03-15T13:41:17;93678.38;;;15.32;38.78
5380;BME280;2713;42.680;23.310;2023-03-15T13:43:45;93675.09;;;15.41;38.70
5380;BME280;2713;42.680;23.310;2023-03-15T13:46:13;93670.97;;;15.45;38.58
5380;BME280;2713;42.680;23.310;2023-03-15T13:48:41;93661.34;;;15.29;37.92